• Join FlightAware (Why Join?)
  • Login
  • US Flag 
06:48PM EST


 

Airport Tracker/Info


-or-


 

Live Flight TrackerFlight Track Log ✈ SWA718 ✈ 16-Jun-2014 ✈ KHOU - KMCO

Flight Track Log - Related Links

Times and Time Zones

All times are in EDT time to prevent confusion due to time zone crossing. See the SWA718 flight status page for this flight to view local times or setup timezone preferences in your user account.

Time Position Orientation Groundspeed Altitude Reporting Facility
EDT Latitude Longitude Course Direction KTS MPH feet Rate Location/Type
11:52PM 29.6261 -95.2567 132° Southeast 145 167 1,400  Level Houston Center
11:53PM 29.6000 -95.2236 132° Southeast 218 251 2,600 2,019 Climbing Houston Center
11:54PM 29.5592 -95.1681 130° Southeast 223 257 4,900 2,508 Climbing Houston Center
11:55PM 29.5406 -95.0889 105° East 272 313 7,700 2,557 Climbing Houston Center
11:56PM 29.5469 -94.9983 85° East 287 330 10,100 1,721 Climbing Houston Center
11:57PM 29.5756 -94.8947 72° East 333 383 11,200 1,983 Climbing Houston Center
11:58PM 29.6053 -94.7819 73° East 362 417 14,100 2,430 Climbing Houston Center
11:59PM 29.6358 -94.6694 73° East 365 420 16,100 1,820 Climbing Houston Center
12:00AM 29.6453 -94.5464 85° East 392 451 17,800 1,785 Climbing Houston Center
12:01AM 29.6422 -94.4206 92° East 393 452 19,700 1,785 Climbing Houston Center
12:02AM 29.6425 -94.2917 90° East 398 458 21,400 1,279 Climbing Houston Center
12:03AM 29.6414 -94.1542 90° East 411 473 22,300 1,339 Climbing Houston Center
12:04AM 29.6400 -94.0167 91° East 429 494 24,100 1,488 Climbing Houston Center
12:05AM 29.6381 -93.8783 91° East 430 495 25,300 1,180 Climbing Houston Center
12:06AM 29.6356 -93.7075 91° East 445 512 26,500 1,091 Climbing Houston Center
12:07AM 29.6339 -93.5619 91° East 455 524 27,500 1,140 Climbing Houston Center
12:08AM 29.6322 -93.4150 91° East 459 528 28,800 1,289 Climbing Houston Center
12:09AM 29.6294 -93.2697 91° East 459 528 30,100 1,140 Climbing Houston Center
12:10AM 29.6272 -93.1233 91° East 459 528 31,100 1,131 Climbing Houston Center
12:11AM 29.6244 -92.9772 91° East 459 528 32,400 1,140 Climbing Houston Center
12:12AM 29.6094 -92.8353 97° East 458 527 33,400 893 Climbing Houston Center
12:13AM 29.5864 -92.6939 101° East 456 525 34,200 793 Climbing Houston Center
12:14AM 29.5647 -92.5528 100° East 452 520 35,000 397 Climbing Houston Center
12:15AM 29.5408 -92.4128 101° East 448 516 35,000  Level Houston Center
12:16AM 29.5181 -92.2697 100° East 452 520 35,000  Level Houston Center
12:17AM 29.4947 -92.1281 101° East 452 520 35,000  Level Houston Center
12:18AM 29.4719 -91.9856 100° East 453 521 35,000  Level Houston Center
12:19AM 29.4469 -91.8419 101° East 454 522 35,000  Level Houston Center
12:20AM 29.4233 -91.6944 100° East 455 524 35,000  Level Houston Center
12:21AM 29.3986 -91.5517 101° East 455 524 35,000  Level Houston Center
12:22AM 29.3747 -91.4083 101° East 456 525 35,000  Level Houston Center
12:23AM 29.3503 -91.2658 101° East 457 526 35,000  Level Houston Center
12:24AM 29.3244 -91.1231 102° East 457 526 35,000  Level Houston Center
12:25AM 29.3003 -90.9797 101° East 457 526 35,000  Level Houston Center
12:26AM 29.2689 -90.8083 102° East 460 529 35,000  Level Houston Center
12:27AM 29.2408 -90.6661 103° East 460 529 35,000  Level Houston Center
12:28AM 29.2136 -90.5244 102° East 460 529 35,000  Level Houston Center
12:29AM 29.1861 -90.3831 103° East 459 528 35,000  Level Houston Center
12:30AM 29.1583 -90.2422 103° East 459 528 35,000  Level Houston Center
12:31AM 29.1300 -90.1014 103° East 459 528 35,000  Level Houston Center
12:32AM 29.1014 -89.9606 103° East 459 528 35,000  Level Houston Center
12:33AM 29.0736 -89.8192 103° East 459 528 35,000  Level Houston Center
12:34AM 29.0453 -89.6772 103° East 459 528 35,000  Level Houston Center
12:35AM 29.0161 -89.5339 103° East 460 529 35,000  Level Houston Center
12:36AM 28.9889 -89.3936 102° East 460 529 35,000  Level Houston Center
12:37AM 28.9911 -89.2481 89° East 462 532 35,000  Level Houston Center
12:38AM 28.9928 -89.1083 89° East 452 520 35,000  Level Houston Center
12:39AM 28.9933 -88.9639 90° East 451 519 35,000  Level Houston Center
12:40AM 28.9950 -88.8197 89° East 454 522 35,000  Level Houston Center
12:41AM 28.9967 -88.6792 89° East 449 517 35,000  Level Houston Center
12:42AM 28.9972 -88.5356 90° East 449 517 35,000  Level Houston Center
12:43AM 28.9997 -88.3878 89° East 461 531 35,000  Level Houston Center
12:44AM 28.9989 -88.2450 90° East 459 528 35,000 -50 Level Houston Center
12:45AM 29.0017 -88.0994 89° East 459 528 34,900  Descending Houston Center
12:46AM 29.0025 -87.9433 90° East 457 526 35,000 50 Climbing Houston Center
12:47AM 29.0019 -87.8003 90° East 455 524 35,000  Level Houston Center
12:48AM 29.0028 -87.6583 90° East 451 519 35,000  Level Houston Center
12:49AM 29.0031 -87.5172 90° East 451 519 35,000  Level Houston Center
12:50AM 29.0028 -87.3767 90° East 447 514 35,000  Level Houston Center
12:51AM 29.0019 -87.2361 90° East 446 513 35,000 -50 Level Houston Center
12:52AM 29.0022 -87.0967 90° East 445 512 34,900  Descending Houston Center
12:53AM 29.0014 -86.9592 90° East 439 505 35,000 44 Climbing Houston Center
12:54AM 29.0014 -86.7644 90° East 441 507 35,000  Level Jacksonville Center
12:55AM 28.9972 -86.6219 92° East 441 507 35,000  Level Jacksonville Center
12:56AM 28.9969 -86.4817 90° East 441 507 35,000  Level Jacksonville Center
12:57AM 28.9967 -86.3464 90° East 441 507 35,000  Level Jacksonville Center
12:58AM 28.9942 -86.2039 91° East 441 507 35,000 -11,000 Level Jacksonville Center
12:59AM 28.9931 -86.0781 91° East 427 491 13,000 -11,000 Descending Jacksonville Center
01:00AM 28.9903 -85.9428 91° East 427 491 13,000 7,333 Level Jacksonville Center
01:02AM 28.9886 -85.6461 90° East 443 510 35,000 7,333 Climbing Jacksonville Center
01:03AM 28.9872 -85.5083 91° East 443 510 35,000  Level Jacksonville Center
01:04AM 28.9839 -85.3683 92° East 443 510 35,000  Level Jacksonville Center
01:05AM 28.9800 -85.2281 92° East 438 504 35,000  Level Jacksonville Center
01:06AM 28.9783 -85.0903 91° East 438 504 35,000 -50 Level Jacksonville Center
01:07AM 28.9764 -84.9528 91° East 438 504 34,900  Descending Jacksonville Center
01:08AM 28.9725 -84.8150 92° East 438 504 35,000 50 Climbing Jacksonville Center
01:09AM 28.9681 -84.6772 92° East 443 510 35,000  Level Jacksonville Center
01:10AM 28.9656 -84.5514 91° East 449 517 35,000  Level Jacksonville Center
01:11AM 28.9631 -84.4114 91° East 443 510 35,000  Level Jacksonville Center
01:12AM 28.9606 -84.2714 91° East 437 503 35,000  Level Jacksonville Center
01:13AM 28.9558 -84.1289 92° East 442 509 35,000  Level Jacksonville Center
01:14AM 28.9508 -83.9889 92° East 442 509 35,000  Level Jacksonville Center
01:15AM 28.9478 -83.8511 91° East 442 509 35,000  Level Jacksonville Center
01:16AM 28.9444 -83.7111 92° East 442 509 35,000  Level Jacksonville Center
01:17AM 28.9411 -83.5689 91° East 442 509 35,000  Level Jacksonville Center
01:18AM 28.9356 -83.4311 93° East 442 509 35,000 -250 Level Jacksonville Center
01:19AM 28.9297 -83.2886 93° East 442 509 34,500 -1,500 Descending Jacksonville Center
01:20AM 28.9261 -83.1511 92° East 437 503 32,000 -2,600 Descending Jacksonville Center
01:21AM 28.9219 -83.0158 92° East 437 503 29,300 -2,450 Descending Jacksonville Center
01:22AM 28.9181 -82.8808 92° East 427 491 27,100 -2,200 Descending Jacksonville Center
01:23AM 28.9136 -82.7575 92° East 413 475 24,900 -2,150 Descending Jacksonville Center
01:24AM 28.9114 -82.6364 91° East 388 447 22,800 -2,150 Descending Jacksonville Center
01:25AM 28.9069 -82.5225 93° East 374 430 20,600 -2,300 Descending Jacksonville Center
01:26AM 28.9025 -82.4086 93° East 361 415 18,200 -2,500 Descending Jacksonville Center
01:27AM 28.8956 -82.2878 94° East 356 410 15,600 -2,350 Descending Jacksonville Center
01:28AM 28.8931 -82.1764 91° East 351 404 13,500 -1,850 Descending Jacksonville Center
01:29AM 28.8881 -82.0672 93° East 346 398 11,900 -1,250 Descending Jacksonville Center
01:30AM 28.8603 -81.9703 108° East 334 384 11,000 -500 Descending Jacksonville Center
01:31AM 28.8283 -81.8736 111° Southeast 334 384 10,900 -650 Descending Jacksonville Center
01:32AM 28.7983 -81.7839 111° Southeast 318 366 9,700 -1,250 Descending Jacksonville Center
01:33AM 28.7725 -81.7011 110° East 289 333 8,400 -1,450 Descending Jacksonville Center
01:34AM 28.7447 -81.6211 112° Southeast 276 318 6,800 -1,450 Descending Jacksonville Center
01:35AM 28.7189 -81.5408 110° East 271 312 5,500 -1,168 Descending Jacksonville Center
01:37AM 28.6833 -81.4333 111° Southeast 244 281 3,900 -1,049 Descending Orlando TRACON
01:38AM 28.6333 -81.3833 139° Southeast 240 276 3,000 -526 Descending Orlando TRACON
01:39AM 28.5833 -81.3500 150° Southeast 187 215 2,900 -350 Descending Orlando TRACON
01:40AM 28.5500 -81.3167 139° Southeast 181 208 2,300 -800 Descending Orlando TRACON
01:41AM 28.5000 -81.3000 164° South 138 159 1,300 -800 Descending Orlando TRACON
01:42AM 28.4667 -81.3000 180° South 141 162 700 -600 Descending Orlando TRACON
01:44AM 28.4294 -81.3090 180° South  Level Estimated
01:51AM 28.4294 -81.3090 24° Northeast  Level Estimated
01:52AM 28.4294 -81.3090 24° Northeast  Level Estimated
01:53AM 28.4294 -81.3090 24° Northeast  Level Estimated
01:54AM 28.4294 -81.3090 24° Northeast  Level Estimated